Time;durP1;ratioP1;P1;durP2;ratioP2;P2;SDS_P1;SDS_P2;PMS_P1;PMS_P2;Temp;Humidity;BMP_temperature;BMP_pressure;BME280_temperature;BME280_humidity;BME280_pressure;Samples;Min_cycle;Max_cycle;Signal;HPM_P1;HPM_P2
2021/06/04 00:00:39;;;;;;;19.52;15.60;;;;;;;21.20;72.64;100698.53;5049462;28;20068;-63
2021/06/04 00:03:10;;;;;;;19.27;16.02;;;;;;;21.13;72.73;100693.59;5032950;28;20499;-62
2021/06/04 00:05:39;;;;;;;20.45;17.67;;;;;;;21.09;72.93;100698.38;5044628;28;20075;-63
2021/06/04 00:08:06;;;;;;;;;;;;;;;20.98;72.88;100686.88;5052404;28;20049;-63
2021/06/04 00:10:36;;;;;;;22.77;18.60;;;;;;;20.97;72.88;100685.22;5052340;28;19921;-63
2021/06/04 00:13:19;;;;;;;20.88;18.02;;;;;;;20.93;72.99;100681.53;5052341;28;20411;-63
2021/06/04 00:15:48;;;;;;;21.67;19.05;;;;;;;20.88;73.02;100676.19;5051883;28;20410;-63
2021/06/04 00:18:15;;;;;;;29.33;21.23;;;;;;;20.83;72.85;100680.16;5051954;28;20064;-63
2021/06/04 00:20:43;;;;;;;23.75;19.77;;;;;;;20.78;72.91;100688.16;5052344;28;20049;-63
2021/06/04 00:23:10;;;;;;;25.05;19.90;;;;;;;20.73;73.26;100677.97;5052257;28;20052;-63
2021/06/04 00:25:37;;;;;;;24.55;19.80;;;;;;;20.68;73.41;100678.28;5050557;28;20045;-63
2021/06/04 00:28:05;;;;;;;28.92;22.40;;;;;;;20.65;73.59;100668.53;5052169;28;20057;-63
2021/06/04 00:30:32;;;;;;;29.88;23.08;;;;;;;20.60;73.80;100668.03;5052283;28;20052;-63
2021/06/04 00:33:00;;;;;;;27.08;21.80;;;;;;;20.61;73.73;100664.03;5052095;28;20061;-63
2021/06/04 00:35:28;;;;;;;31.25;23.60;;;;;;;20.56;74.09;100658.66;5050340;28;20049;-63
2021/06/04 00:37:54;;;;;;;29.98;21.60;;;;;;;20.56;74.01;100667.97;5052343;28;20053;-63
2021/06/04 00:40:25;;;;;;;28.08;22.38;;;;;;;20.51;74.32;100665.44;5052100;28;20049;-63
2021/06/04 00:42:55;;;;;;;29.00;23.40;;;;;;;20.52;74.06;100663.44;5052546;28;20049;-63
2021/06/04 00:45:26;;;;;;;27.88;22.42;;;;;;;20.49;74.18;100659.31;5050978;28;20053;-63
2021/06/04 00:47:53;;;;;;;25.88;21.92;;;;;;;20.47;74.27;100667.38;5046760;28;20045;-63
2021/06/04 00:50:26;;;;;;;24.80;20.85;;;;;;;20.42;74.64;100668.50;5051223;28;20048;-63
2021/06/04 00:52:53;;;;;;;30.77;23.13;;;;;;;20.40;74.94;100667.25;5054955;28;20416;-63
2021/06/04 00:55:22;;;;;;;28.90;23.65;;;;;;;20.38;75.14;100675.31;5046166;28;20060;-62
2021/06/04 00:57:49;;;;;;;31.08;24.50;;;;;;;20.38;75.39;100670.47;5055821;28;20076;-63
2021/06/04 01:00:25;;;;;;;36.42;27.35;;;;;;;20.42;75.52;100662.03;5056112;28;20057;-63
2021/06/04 01:02:54;;;;;;;30.92;24.85;;;;;;;20.43;75.78;100669.31;5053599;28;20053;-63
2021/06/04 01:05:27;;;;;;;29.63;23.38;;;;;;;20.47;75.51;100656.91;5049547;28;20063;-63
2021/06/04 01:08:12;;;;;;;28.65;23.30;;;;;;;20.51;75.19;100668.25;5055507;28;20060;-63
2021/06/04 01:10:53;;;;;;;28.25;22.95;;;;;;;20.54;74.98;100672.38;5054800;28;20045;-63
2021/06/04 01:13:26;;;;;;;25.02;22.23;;;;;;;20.56;74.80;100665.13;5054444;28;20059;-63
2021/06/04 01:16:03;;;;;;;29.55;23.23;;;;;;;20.57;74.99;100668.78;5041447;28;20807;-63
2021/06/04 01:18:42;;;;;;;33.78;24.50;;;;;;;20.55;74.92;100674.81;5035578;28;20050;-63
2021/06/04 01:21:20;;;;;;;28.52;23.95;;;;;;;20.52;75.23;100678.41;5042722;28;20405;-63
2021/06/04 01:23:54;;;;;;;33.35;26.65;;;;;;;20.48;75.66;100667.00;5054767;28;20049;-63
2021/06/04 01:26:27;;;;;;;40.35;28.27;;;;;;;20.52;75.83;100678.41;5055493;28;20052;-63
2021/06/04 01:29:00;;;;;;;33.65;27.00;;;;;;;20.51;75.82;100681.59;5053811;28;20064;-62
2021/06/04 01:31:34;;;;;;;38.92;28.13;;;;;;;20.51;76.12;100675.94;5055171;28;20083;-63
2021/06/04 01:34:06;;;;;;;34.95;27.58;;;;;;;20.54;76.33;100670.34;5053598;28;20052;-62
2021/06/04 01:36:38;;;;;;;33.17;25.33;;;;;;;20.54;76.54;100666.72;5054733;28;20494;-63
2021/06/04 01:39:08;;;;;;;28.48;22.90;;;;;;;20.57;75.83;100678.06;5055144;28;20051;-63
2021/06/04 01:41:41;;;;;;;26.25;22.58;;;;;;;20.59;75.36;100678.53;5055134;28;20056;-63
2021/06/04 01:44:13;;;;;;;22.45;20.13;;;;;;;20.64;75.04;100671.75;5053732;28;20056;-63
2021/06/04 01:46:44;;;;;;;25.20;22.20;;;;;;;20.60;74.86;100674.53;5054714;28;20053;-63
2021/06/04 01:49:15;;;;;;;21.85;19.58;;;;;;;20.57;75.02;100668.78;5054071;28;20057;-63
2021/06/04 01:51:47;;;;;;;23.08;19.88;;;;;;;20.59;74.99;100677.72;5054461;28;20049;-63
2021/06/04 01:54:18;;;;;;;21.67;19.08;;;;;;;20.55;74.92;100671.97;5053636;28;20060;-63
2021/06/04 01:56:50;;;;;;;21.77;19.40;;;;;;;20.52;74.85;100666.28;5054938;28;20056;-63
2021/06/04 01:59:22;;;;;;;22.33;19.92;;;;;;;20.51;75.15;100678.78;5054236;28;20053;-63
2021/06/04 02:01:51;;;;;;;21.70;19.23;;;;;;;20.47;75.51;100679.53;5054405;28;20059;-63
2021/06/04 02:04:27;;;;;;;20.10;18.00;;;;;;;20.51;75.19;100679.56;5052720;28;20064;-63
2021/06/04 02:06:54;;;;;;;20.05;18.05;;;;;;;20.48;75.08;100681.16;5054673;28;20057;-63
2021/06/04 02:09:23;;;;;;;21.05;18.80;;;;;;;20.50;74.99;100672.31;5047443;28;20479;-63
2021/06/04 02:11:52;;;;;;;20.08;17.98;;;;;;;20.48;75.09;100671.84;5034234;28;20487;-63
2021/06/04 02:14:23;;;;;;;20.35;18.25;;;;;;;20.46;74.99;100675.06;5035677;28;20060;-63
2021/06/04 02:17:12;;;;;;;19.88;17.23;;;;;;;20.50;74.78;100677.97;5034891;28;20053;-63
2021/06/04 02:19:49;;;;;;;21.45;18.02;;;;;;;20.47;74.81;100675.88;5033966;28;20528;-64
2021/06/04 02:22:22;;;;;;;19.63;17.55;;;;;;;20.46;74.67;100680.72;5034140;28;20080;-63
2021/06/04 02:24:57;;;;;;;21.55;17.70;;;;;;;20.43;74.64;100684.31;5049719;28;20071;-63
2021/06/04 02:27:30;;;;;;;21.15;18.92;;;;;;;20.45;74.93;100689.56;5054033;28;20059;-63
2021/06/04 02:30:02;;;;;;;24.55;21.23;;;;;;;20.45;75.20;100681.09;5054199;28;20045;-63
2021/06/04 02:32:37;;;;;;;20.42;17.73;;;;;;;20.46;75.08;100688.41;5053872;28;20069;-63
2021/06/04 02:35:10;;;;;;;18.60;16.70;;;;;;;20.48;74.55;100688.84;5053268;28;20049;-63
2021/06/04 02:37:44;;;;;;;18.15;16.20;;;;;;;20.44;74.38;100690.78;5053799;28;20060;-64
2021/06/04 02:40:17;;;;;;;18.20;16.20;;;;;;;20.45;74.29;100690.41;5053921;28;20405;-63
2021/06/04 02:42:49;;;;;;;18.02;16.15;;;;;;;20.46;73.86;100692.03;5053822;28;20053;-64
2021/06/04 02:45:23;;;;;;;18.02;16.13;;;;;;;20.44;73.99;100685.13;5053015;28;20410;-64
2021/06/04 02:47:53;;;;;;;18.83;16.73;;;;;;;20.43;73.70;100684.31;5053479;28;20056;-63
2021/06/04 02:50:28;;;;;;;18.02;16.23;;;;;;;20.41;73.79;100681.03;5053569;28;20045;-63
2021/06/04 02:53:11;;;;;;;19.08;17.08;;;;;;;20.35;74.07;100691.03;5053504;28;20060;-63
2021/06/04 02:55:44;;;;;;;18.33;16.48;;;;;;;20.29;74.34;100692.53;5052020;28;20064;-63
2021/06/04 02:58:12;;;;;;;17.02;15.27;;;;;;;20.31;74.15;100692.16;5053256;28;20057;-63
2021/06/04 03:00:41;;;;;;;16.40;14.70;;;;;;;20.31;73.69;100697.81;5053489;28;20482;-63
2021/06/04 03:03:08;;;;;;;17.00;15.25;;;;;;;20.29;73.89;100692.53;5053511;28;20486;-63
2021/06/04 03:05:39;;;;;;;15.98;14.38;;;;;;;20.25;73.88;100698.13;5052359;28;20053;-63
2021/06/04 03:08:07;;;;;;;17.52;15.82;;;;;;;20.24;73.92;100699.31;5053272;28;20059;-63
2021/06/04 03:10:37;;;;;;;18.00;16.10;;;;;;;20.22;74.02;100700.88;5053335;28;20057;-62
2021/06/04 03:13:08;;;;;;;17.92;16.17;;;;;;;20.17;74.47;100696.34;5033480;28;20057;-63
2021/06/04 03:15:39;;;;;;;20.17;17.20;;;;;;;20.17;74.52;100704.81;5048172;28;20045;-63
2021/06/04 03:18:08;;;;;;;19.70;17.40;;;;;;;20.18;74.43;100697.16;5050905;28;20056;-63
2021/06/04 03:20:38;;;;;;;18.73;16.75;;;;;;;20.20;74.31;100708.91;5053077;28;20517;-63
2021/06/04 03:23:06;;;;;;;18.13;16.08;;;;;;;20.17;74.22;100709.66;5053290;28;20049;-63
2021/06/04 03:25:39;;;;;;;19.67;16.90;;;;;;;20.16;74.38;100723.00;5052454;28;20060;-63
2021/06/04 03:28:09;;;;;;;19.92;17.15;;;;;;;20.16;74.29;100710.84;5053116;28;20060;-63
2021/06/04 03:30:39;;;;;;;16.83;15.23;;;;;;;20.14;74.25;100714.06;5052831;28;20493;-63
2021/06/04 03:33:08;;;;;;;15.80;14.20;;;;;;;20.15;74.20;100717.72;5052514;28;20053;-63
2021/06/04 03:35:35;;;;;;;16.02;14.48;;;;;;;20.12;74.05;100722.13;5052090;28;20056;-63
2021/06/04 03:38:03;;;;;;;18.52;16.63;;;;;;;20.12;74.24;100719.28;5052766;28;20057;-63
2021/06/04 03:40:32;;;;;;;16.90;15.20;;;;;;;20.12;74.26;100730.59;5053081;28;20055;-63
2021/06/04 03:43:02;;;;;;;17.02;15.32;;;;;;;20.14;74.39;100733.88;5052596;28;20063;-63
2021/06/04 03:45:33;;;;;;;18.58;16.67;;;;;;;20.16;74.41;100736.31;5052269;28;20482;-63
2021/06/04 03:48:03;;;;;;;16.30;14.70;;;;;;;20.13;74.54;100740.69;5052550;28;20403;-63
2021/06/04 03:50:30;;;;;;;15.27;13.93;;;;;;;20.20;74.18;100742.84;5052452;28;20406;-63
2021/06/04 03:52:57;;;;;;;16.00;14.30;;;;;;;20.14;74.38;100747.16;5052329;28;20076;-63
2021/06/04 03:55:27;;;;;;;17.15;15.38;;;;;;;20.11;74.40;100740.25;5051672;28;20491;-63
2021/06/04 03:57:55;;;;;;;16.58;14.98;;;;;;;20.10;74.39;100738.63;5052428;28;20064;-63
2021/06/04 04:00:27;;;;;;;15.05;13.55;;;;;;;20.14;74.39;100742.34;5052676;28;20059;-63
2021/06/04 04:02:55;;;;;;;15.60;13.98;;;;;;;20.15;74.23;100737.50;5052900;28;20505;-63
2021/06/04 04:05:27;;;;;;;14.82;13.43;;;;;;;20.15;74.36;100746.00;5051524;28;20045;-63
2021/06/04 04:07:57;;;;;;;17.08;15.35;;;;;;;20.15;74.42;100740.34;5052744;28;20056;-63
2021/06/04 04:10:26;;;;;;;16.58;15.02;;;;;;;20.20;74.19;100743.69;5052591;28;20052;-63
2021/06/04 04:12:53;;;;;;;16.08;14.48;;;;;;;20.23;73.99;100747.78;5052594;28;20057;-63
2021/06/04 04:15:21;;;;;;;17.25;15.32;;;;;;;20.23;74.36;100742.13;5048602;28;20052;-63
2021/06/04 04:17:50;;;;;;;16.77;15.18;;;;;;;20.26;74.06;100741.34;5052400;28;20049;-63
2021/06/04 04:20:21;;;;;;;15.35;13.93;;;;;;;20.31;73.73;100738.25;5052636;28;20076;-63
2021/06/04 04:22:50;;;;;;;15.77;14.27;;;;;;;20.37;73.34;100744.38;5052331;28;20505;-63
2021/06/04 04:25:16;;;;;;;14.77;13.37;;;;;;;20.39;73.36;100748.50;5051390;28;20053;-63
2021/06/04 04:27:44;;;;;;;14.45;13.05;;;;;;;20.41;73.21;100748.09;5055125;28;20471;-63
2021/06/04 04:30:14;;;;;;;15.82;14.07;;;;;;;20.42;73.32;100744.09;5056228;28;20485;-63
2021/06/04 04:32:43;;;;;;;15.00;13.50;;;;;;;20.45;73.61;100741.34;5055970;28;20533;-63
2021/06/04 04:35:14;;;;;;;15.35;13.75;;;;;;;20.50;73.41;100748.69;5055457;28;20063;-63
2021/06/04 04:37:41;;;;;;;15.93;14.43;;;;;;;20.55;73.58;100744.75;5055903;28;20068;-63
2021/06/04 04:40:11;;;;;;;16.35;14.73;;;;;;;20.59;73.39;100743.63;5056635;28;20049;-63
2021/06/04 04:42:38;;;;;;;16.20;14.70;;;;;;;20.65;73.32;100746.97;5055762;28;20053;-63
2021/06/04 04:45:08;;;;;;;14.80;13.40;;;;;;;20.72;73.37;100751.94;5055189;28;20041;-63
2021/06/04 04:47:35;;;;;;;15.85;14.35;;;;;;;20.72;73.11;100758.41;5055656;28;20443;-63
2021/06/04 04:50:05;;;;;;;14.75;13.35;;;;;;;20.78;72.63;100758.94;5055439;28;20056;-63
2021/06/04 04:52:32;;;;;;;14.65;13.25;;;;;;;20.82;72.15;100757.00;5055603;28;20474;-63
2021/06/04 04:54:58;;;;;;;15.90;14.32;;;;;;;20.84;71.75;100755.41;5055552;28;20489;-63
2021/06/04 04:57:28;;;;;;;15.35;13.85;;;;;;;20.89;71.45;100759.94;5055593;28;20056;-63
2021/06/04 04:59:55;;;;;;;14.73;13.23;;;;;;;20.87;71.93;100760.34;5056065;28;20056;-63
2021/06/04 05:02:26;;;;;;;14.68;13.18;;;;;;;20.94;71.88;100758.81;5055895;28;20405;-63
2021/06/04 05:04:53;;;;;;;14.15;12.85;;;;;;;21.04;71.74;100756.16;5054898;28;20049;-63
2021/06/04 05:07:20;;;;;;;14.52;13.23;;;;;;;21.15;71.73;100752.69;5055852;28;20520;-63
2021/06/04 05:09:47;;;;;;;14.52;13.23;;;;;;;21.24;71.60;100756.06;5055496;28;20409;-63
2021/06/04 05:12:14;;;;;;;14.88;13.48;;;;;;;21.35;71.24;100753.41;5055237;28;20056;-63
2021/06/04 05:14:42;;;;;;;14.48;13.07;;;;;;;21.45;70.80;100752.78;5054774;28;20063;-62
2021/06/04 05:17:09;;;;;;;14.70;13.30;;;;;;;21.52;70.61;100752.06;5055121;28;20406;-63
2021/06/04 05:19:38;;;;;;;14.27;12.88;;;;;;;21.63;70.33;100756.69;5047180;28;20068;-63
2021/06/04 05:22:05;;;;;;;15.55;14.05;;;;;;;21.72;70.13;100758.44;5035421;28;20529;-63
2021/06/04 05:24:32;;;;;;;14.65;13.27;;;;;;;21.78;69.63;100763.38;5046290;28;20067;-63
2021/06/04 05:26:59;;;;;;;15.35;13.90;;;;;;;21.84;69.67;100773.19;5055482;28;20054;-64
2021/06/04 05:29:26;;;;;;;15.40;13.80;;;;;;;21.96;69.35;100762.78;5055659;28;20496;-63
2021/06/04 05:31:54;;;;;;;15.35;13.95;;;;;;;22.04;69.40;100764.53;5054725;28;20065;-63
2021/06/04 05:34:21;;;;;;;16.48;14.50;;;;;;;22.08;68.97;100760.50;5054031;28;20053;-63
2021/06/04 05:36:48;;;;;;;14.07;12.75;;;;;;;22.18;68.79;100761.06;5055242;28;20463;-63
2021/06/04 05:39:17;;;;;;;16.13;13.95;;;;;;;22.28;68.33;100755.53;5054864;28;20478;-64
2021/06/04 05:41:45;;;;;;;;;;;;;;;22.35;68.23;100754.78;5055194;28;20516;-63
2021/06/04 05:44:14;;;;;;;13.70;12.48;;;;;;;22.46;67.93;100763.41;5054756;28;19927;-63
2021/06/04 05:46:42;;;;;;;13.35;12.05;;;;;;;22.59;67.78;100755.44;5052672;28;20053;-63
2021/06/04 05:49:10;;;;;;;13.05;11.77;;;;;;;22.74;67.36;100770.59;5054116;28;20053;-63
2021/06/04 05:51:38;;;;;;;14.27;12.88;;;;;;;22.78;67.49;100771.44;5054465;28;20049;-63
2021/06/04 05:54:05;;;;;;;14.50;13.00;;;;;;;22.82;67.46;100773.13;5054645;28;20041;-62
2021/06/04 05:56:33;;;;;;;13.82;12.43;;;;;;;22.83;67.09;100773.94;5054681;28;20057;-63
2021/06/04 05:59:00;;;;;;;14.60;13.30;;;;;;;22.86;67.38;100781.69;5054627;28;20053;-63
2021/06/04 06:01:31;;;;;;;14.30;13.05;;;;;;;22.88;67.13;100784.94;5054468;28;20056;-63
2021/06/04 06:03:58;;;;;;;18.58;13.32;;;;;;;22.92;66.99;100782.94;5053156;28;20071;-63
2021/06/04 06:06:26;;;;;;;15.45;13.93;;;;;;;22.92;66.89;100782.13;5054024;28;20052;-63
2021/06/04 06:08:55;;;;;;;13.98;12.77;;;;;;;22.86;66.81;100781.69;5049142;28;20071;-63
2021/06/04 06:11:25;;;;;;;16.15;14.40;;;;;;;22.94;66.77;100783.38;5053105;28;20048;-63
2021/06/04 06:13:52;;;;;;;14.13;12.63;;;;;;;22.97;66.29;100778.94;5052986;28;20052;-63
2021/06/04 06:16:19;;;;;;;15.52;14.07;;;;;;;23.03;66.54;100777.41;5051201;28;20044;-63
2021/06/04 06:18:46;;;;;;;16.10;14.60;;;;;;;23.02;66.65;100782.25;5052382;28;20052;-63
2021/06/04 06:21:14;;;;;;;16.80;15.23;;;;;;;23.03;66.38;100788.75;5050503;28;20045;-63
2021/06/04 06:23:43;;;;;;;16.67;15.18;;;;;;;23.07;66.36;100781.91;5052948;28;20052;-63
2021/06/04 06:26:13;;;;;;;15.80;14.38;;;;;;;23.27;65.94;100790.19;5053957;28;20409;-63
2021/06/04 06:28:42;;;;;;;16.38;14.75;;;;;;;23.33;65.41;100794.31;5053593;28;20053;-63
2021/06/04 06:31:13;;;;;;;15.77;14.18;;;;;;;23.50;65.30;100775.75;5045924;28;20494;-63
2021/06/04 06:33:40;;;;;;;16.10;14.52;;;;;;;23.64;65.24;100800.59;5035935;28;20421;-63
2021/06/04 06:36:10;;;;;;;16.30;14.80;;;;;;;23.71;65.07;100800.66;5053196;28;20049;-63
2021/06/04 06:38:38;;;;;;;15.52;14.13;;;;;;;23.83;64.38;100800.38;5053949;28;20049;-63
2021/06/04 06:41:10;;;;;;;14.95;13.55;;;;;;;23.91;63.95;100792.66;5038972;28;20053;-63
2021/06/04 06:43:39;;;;;;;15.77;14.30;;;;;;;24.01;63.72;100799.63;5033908;28;20050;-63
2021/06/04 06:46:09;;;;;;;14.77;13.38;;;;;;;24.14;62.79;100794.41;5052826;28;20056;-63
2021/06/04 06:48:36;;;;;;;14.63;13.18;;;;;;;24.35;62.32;100803.03;5053283;28;20060;-63
2021/06/04 06:51:03;;;;;;;14.55;13.07;;;;;;;24.51;62.72;100789.28;5052794;28;20053;-63
2021/06/04 06:53:30;;;;;;;14.73;13.32;;;;;;;24.71;61.49;100795.44;5052406;28;20053;-63
2021/06/04 06:55:57;;;;;;;16.48;14.88;;;;;;;24.73;60.88;100797.88;5049230;28;20064;-63
2021/06/04 06:58:28;;;;;;;14.65;13.25;;;;;;;24.93;60.64;100792.63;5051468;28;20056;-63
2021/06/04 07:00:56;;;;;;;18.95;17.02;;;;;;;25.14;59.45;100794.69;5053775;28;20055;-63
2021/06/04 07:03:27;;;;;;;17.30;15.50;;;;;;;25.35;58.73;100791.03;5043941;28;20049;-63
2021/06/04 07:05:56;;;;;;;17.40;15.63;;;;;;;25.54;58.56;100801.19;5048491;28;20041;-63
2021/06/04 07:08:23;;;;;;;17.33;15.57;;;;;;;25.73;57.90;100789.34;5051604;28;20057;-63
2021/06/04 07:10:51;;;;;;;17.95;16.05;;;;;;;25.99;57.11;100795.81;5046584;28;20057;-62
2021/06/04 07:13:25;;;;;;;17.70;15.80;;;;;;;26.16;56.61;100793.31;5036378;28;20467;-63
2021/06/04 07:15:56;;;;;;;17.08;15.55;;;;;;;26.37;55.43;100803.81;5041256;28;20056;-62
2021/06/04 07:18:23;;;;;;;18.05;16.27;;;;;;;26.20;55.91;100803.50;5041794;28;20064;-63
2021/06/04 07:20:50;;;;;;;17.45;15.85;;;;;;;26.32;55.96;100808.75;5050295;28;20485;-63
2021/06/04 07:23:17;;;;;;;18.02;16.33;;;;;;;26.52;56.50;100808.22;5051144;28;20505;-63
2021/06/04 07:25:46;;;;;;;19.30;17.30;;;;;;;26.74;55.19;100800.41;5051564;28;20048;-63
2021/06/04 07:28:15;;;;;;;18.33;16.55;;;;;;;27.02;54.10;100798.56;5048279;28;20406;-63
2021/06/04 07:30:44;;;;;;;17.75;15.93;;;;;;;27.43;53.40;100795.78;5036617;28;20052;-63
2021/06/04 07:33:17;;;;;;;16.33;14.77;;;;;;;27.81;52.42;100795.81;5052532;28;20412;-63
2021/06/04 07:35:44;;;;;;;16.90;15.27;;;;;;;28.22;51.29;100800.66;5049806;28;20378;-63
2021/06/04 07:38:11;;;;;;;17.75;15.95;;;;;;;28.68;50.96;100798.47;5043102;28;20048;-63
2021/06/04 07:40:39;;;;;;;16.75;15.07;;;;;;;29.07;50.08;100797.06;5042355;28;20142;-63
2021/06/04 07:43:09;;;;;;;16.33;14.82;;;;;;;29.39;47.93;100799.41;5052530;28;20044;-63
2021/06/04 07:45:38;;;;;;;16.17;14.70;;;;;;;29.62;47.52;100797.78;5035698;28;20414;-63
2021/06/04 07:48:05;;;;;;;;;;;;;;;29.59;47.75;100805.22;5033336;28;20065;-63
2021/06/04 07:50:34;;;;;;;16.83;15.23;;;;;;;29.61;47.14;100802.72;5044388;28;19920;-63
2021/06/04 07:53:01;;;;;;;17.50;15.88;;;;;;;29.75;47.34;100795.91;5032762;28;20053;-63
2021/06/04 07:55:28;;;;;;;17.38;15.73;;;;;;;30.14;46.09;100805.81;5046254;28;20052;-63
2021/06/04 07:57:55;;;;;;;18.52;16.63;;;;;;;30.53;44.02;100804.16;5048525;28;20364;-63
2021/06/04 08:00:26;;;;;;;17.70;15.85;;;;;;;30.54;44.79;100797.19;5039358;28;20064;-63
2021/06/04 08:02:54;;;;;;;18.70;16.90;;;;;;;30.48;45.22;100802.63;5045084;28;20049;-63
2021/06/04 08:05:22;;;;;;;18.60;16.77;;;;;;;30.35;44.38;100810.31;5044900;28;20055;-63
2021/06/04 08:07:50;;;;;;;19.45;17.45;;;;;;;30.13;45.09;100805.00;5043839;28;20379;-63
2021/06/04 08:10:17;;;;;;;21.50;18.85;;;;;;;30.07;45.54;100811.69;5043484;28;20052;-64
2021/06/04 08:12:45;;;;;;;19.65;17.80;;;;;;;29.82;45.62;100813.00;5053485;28;20045;-63
2021/06/04 08:15:17;;;;;;;18.65;16.95;;;;;;;29.71;46.33;100806.63;5050057;28;20053;-63
2021/06/04 08:17:45;;;;;;;19.75;17.80;;;;;;;29.66;46.48;100807.94;5035198;28;20069;-66
2021/06/04 08:20:22;;;;;;;19.25;17.35;;;;;;;29.53;46.73;100796.28;5030224;28;20049;-66
2021/06/04 08:22:52;;;;;;;19.60;17.70;;;;;;;29.97;45.81;100801.25;5035722;28;20057;-66
2021/06/04 08:25:23;;;;;;;19.00;17.20;;;;;;;30.38;43.85;100808.63;5025883;28;20046;-66
2021/06/04 08:27:49;;;;;;;19.42;17.27;;;;;;;30.50;43.71;100808.75;5026424;28;20407;-66
2021/06/04 08:30:20;;;;;;;19.75;17.88;;;;;;;30.37;44.59;100807.00;5031648;28;20042;-66
2021/06/04 08:32:47;;;;;;;18.92;17.15;;;;;;;30.14;44.79;100805.81;5036937;28;20056;-66
2021/06/04 08:35:15;;;;;;;20.65;18.65;;;;;;;30.03;44.79;100797.41;5025317;28;20061;-67
2021/06/04 08:37:43;;;;;;;20.17;17.95;;;;;;;30.91;43.17;100803.72;5022993;28;20060;-66
2021/06/04 08:40:15;;;;;;;19.42;17.60;;;;;;;30.92;42.36;100808.25;5036682;28;20053;-66
2021/06/04 08:42:58;;;;;;;21.00;18.80;;;;;;;30.99;42.44;100795.75;5040930;28;20054;-66
2021/06/04 08:45:37;;;;;;;21.92;19.63;;;;;;;31.37;41.80;100798.88;5034630;28;20387;-66
2021/06/04 08:48:16;;;;;;;20.15;18.05;;;;;;;31.79;41.18;100790.38;5035019;28;20049;-66
2021/06/04 08:50:56;;;;;;;18.17;16.48;;;;;;;33.41;38.74;100792.03;5035784;28;20388;-66
2021/06/04 08:53:26;;;;;;;18.65;16.80;;;;;;;34.34;35.14;100791.56;5035698;28;20061;-66
2021/06/04 08:56:02;;;;;;;20.58;18.60;;;;;;;34.91;34.08;100799.28;5025542;28;20053;-66
2021/06/04 08:58:44;;;;;;;19.08;17.38;;;;;;;36.33;31.53;100794.31;5034800;28;20366;-66
2021/06/04 09:01:16;;;;;;;19.20;17.33;;;;;;;37.51;30.13;100801.44;5031113;28;20064;-66
2021/06/04 09:03:48;;;;;;;17.75;16.17;;;;;;;38.68;28.31;100793.44;5031119;28;20060;-66
2021/06/04 09:06:27;;;;;;;17.58;15.95;;;;;;;39.68;25.88;100788.81;5033203;28;20156;-66
2021/06/04 09:08:55;;;;;;;16.40;14.88;;;;;;;40.53;23.38;100787.63;5015788;28;20073;-67
2021/06/04 09:11:27;;;;;;;;;;;;;;;40.46;24.64;100785.19;5029862;28;20065;-66
2021/06/04 09:13:54;;;;;;;15.63;14.32;;;;;;;40.28;24.69;100795.88;5033486;28;19925;-67
2021/06/04 09:16:30;;;;;;;14.77;13.53;;;;;;;41.43;22.26;100787.47;5032624;28;20052;-67
2021/06/04 09:19:03;;;;;;;14.50;13.23;;;;;;;41.64;21.47;100785.22;5033918;28;20056;-67
2021/06/04 09:21:33;;;;;;;13.57;12.38;;;;;;;42.82;20.28;100785.44;5033896;28;20053;-67
2021/06/04 09:24:02;;;;;;;16.75;15.15;;;;;;;43.55;19.82;100790.34;5031496;28;20049;-67
2021/06/04 09:26:34;;;;;;;15.50;14.20;;;;;;;44.40;19.46;100795.78;5032469;28;20718;-67
2021/06/04 09:29:14;;;;;;;16.10;14.70;;;;;;;44.71;18.23;100795.25;5032388;28;20076;-67
2021/06/04 09:31:46;;;;;;;14.90;13.68;;;;;;;45.13;17.52;100795.94;5031445;28;20053;-67
2021/06/04 09:34:19;;;;;;;14.15;12.85;;;;;;;46.19;16.26;100792.19;5032311;28;20053;-67
2021/06/04 09:36:50;;;;;;;15.15;13.75;;;;;;;46.80;15.88;100795.50;5033013;28;20080;-67
2021/06/04 09:39:31;;;;;;;14.48;13.27;;;;;;;47.01;16.31;100792.72;5033591;28;20057;-67
2021/06/04 09:42:20;;;;;;;12.23;11.23;;;;;;;46.32;15.46;100788.50;5033252;28;20053;-67
2021/06/04 09:44:57;;;;;;;11.07;10.18;;;;;;;47.24;14.41;100793.09;5032806;28;20057;-67
2021/06/04 09:47:35;;;;;;;12.27;11.23;;;;;;;47.76;14.17;100779.66;5033298;28;20049;-67
2021/06/04 09:50:22;;;;;;;11.30;9.98;;;;;;;48.23;12.83;100778.03;5032514;28;20230;-67
2021/06/04 09:53:01;;;;;;;12.13;11.02;;;;;;;48.42;13.02;100783.78;5031897;28;20056;-67
2021/06/04 09:55:31;;;;;;;11.52;10.52;;;;;;;48.60;12.46;100787.88;5030830;28;20056;-67
2021/06/04 09:58:07;;;;;;;9.70;8.90;;;;;;;49.31;12.34;100794.59;5033981;28;20049;-67
2021/06/04 10:00:38;;;;;;;9.77;8.85;;;;;;;48.74;11.68;100798.28;5032877;28;20053;-67
2021/06/04 10:03:27;;;;;;;10.82;9.77;;;;;;;48.32;12.85;100798.28;5032894;28;20056;-67
2021/06/04 10:06:11;;;;;;;10.93;10.00;;;;;;;47.73;12.35;100794.75;5033296;28;20053;-67
2021/06/04 10:08:43;;;;;;;11.25;10.02;;;;;;;46.62;13.99;100779.44;5030481;28;20049;-67
2021/06/04 10:11:13;;;;;;;10.73;9.77;;;;;;;45.64;14.35;100782.81;5031730;28;20418;-67
2021/06/04 10:13:49;;;;;;;12.00;10.80;;;;;;;45.55;15.63;100775.94;5037179;28;20049;-67
2021/06/04 10:17:02;;;;;;;9.90;8.90;;;;;;;46.26;14.45;100776.81;5041838;28;20050;-67
2021/06/04 10:19:36;;;;;;;10.27;9.27;;;;;;;46.95;13.91;100768.44;5047445;28;20374;-67
2021/06/04 10:22:15;;;;;;;10.95;9.98;;;;;;;47.35;13.33;100765.50;5054430;28;20057;-67
2021/06/04 10:24:46;;;;;;;9.20;8.40;;;;;;;47.77;13.44;100771.59;5052221;28;20406;-67
2021/06/04 10:27:17;;;;;;;12.38;11.25;;;;;;;48.43;12.28;100758.78;5054095;28;20056;-67
2021/06/04 10:29:59;;;;;;;11.73;10.73;;;;;;;48.64;12.37;100758.78;5054386;28;20049;-67
2021/06/04 10:32:31;;;;;;;12.60;11.50;;;;;;;48.94;12.07;100760.38;5054004;28;20055;-67
2021/06/04 10:35:08;;;;;;;11.45;10.55;;;;;;;49.23;12.15;100752.31;5053042;28;20059;-67
2021/06/04 10:37:40;;;;;;;12.10;11.13;;;;;;;48.64;11.81;100758.78;5054032;28;20053;-67
2021/06/04 10:40:15;;;;;;;11.85;10.75;;;;;;;48.04;12.68;100750.88;5054001;28;20049;-67
2021/06/04 10:42:57;;;;;;;11.63;10.50;;;;;;;46.96;13.30;100752.34;5053852;28;20056;-67
2021/06/04 10:45:29;;;;;;;10.07;9.18;;;;;;;46.65;13.99;100754.75;5053117;28;20048;-67
2021/06/04 10:48:08;;;;;;;10.55;9.25;;;;;;;46.48;15.02;100751.31;5053859;28;20056;-67
2021/06/04 10:50:41;;;;;;;10.55;9.65;;;;;;;46.29;14.48;100745.47;5053354;28;20060;-67
2021/06/04 10:53:15;;;;;;;11.55;10.35;;;;;;;46.55;14.39;100750.66;5053312;28;20477;-67
2021/06/04 10:55:49;;;;;;;12.95;11.65;;;;;;;46.53;14.37;100750.41;5053629;28;20477;-67
2021/06/04 10:58:27;;;;;;;11.93;10.68;;;;;;;46.52;14.22;100748.84;5053268;28;20049;-67
2021/06/04 11:00:57;;;;;;;11.07;10.07;;;;;;;46.97;14.70;100742.13;5053702;28;20052;-67
2021/06/04 11:03:32;;;;;;;11.23;10.23;;;;;;;47.46;13.47;100755.59;5052515;28;20063;-67
2021/06/04 11:06:05;;;;;;;11.65;10.60;;;;;;;47.98;12.74;100754.72;5053492;28;20053;-67
2021/06/04 11:08:55;;;;;;;13.60;12.43;;;;;;;47.92;12.79;100745.22;5053436;28;20056;-67
2021/06/04 11:11:46;;;;;;;12.23;11.20;;;;;;;48.22;12.46;100732.16;5053470;28;20049;-67
2021/06/04 11:14:50;;;;;;;11.63;10.63;;;;;;;48.14;12.87;100732.06;5052855;28;20052;-67
2021/06/04 11:17:28;;;;;;;10.15;9.25;;;;;;;48.66;13.70;100740.44;5053128;28;20053;-67
2021/06/04 11:20:03;;;;;;;10.88;9.88;;;;;;;48.87;12.81;100743.34;5050350;28;20418;-67
2021/06/04 11:22:44;;;;;;;12.30;11.20;;;;;;;49.00;12.56;100734.44;5052338;28;20048;-67
2021/06/04 11:25:34;;;;;;;11.50;10.60;;;;;;;49.70;11.35;100735.59;5052531;28;20053;-67
2021/06/04 11:28:19;;;;;;;11.70;10.48;;;;;;;49.74;11.73;100730.88;5050997;28;20075;-67
2021/06/04 11:30:53;;;;;;;11.13;10.07;;;;;;;50.34;11.28;100725.69;5053308;28;20486;-67